createdAt,value
2022-12-17T00:02:13.826Z,100304.98
2022-12-17T00:05:37.983Z,100306.85
2022-12-17T00:09:01.699Z,100286.62
2022-12-17T00:12:25.468Z,100302.88
2022-12-17T00:15:49.484Z,100315.56
2022-12-17T00:19:13.377Z,100312.23
2022-12-17T00:22:36.955Z,100307.47
2022-12-17T00:26:00.602Z,100312.74
2022-12-17T00:29:24.195Z,100303.05
2022-12-17T00:32:47.556Z,100295.92
2022-12-17T00:36:11.124Z,100287.13
2022-12-17T00:39:34.219Z,100288.88
2022-12-17T00:42:57.507Z,100301.60
2022-12-17T00:46:21.482Z,100300.95
2022-12-17T00:49:39.215Z,100296.36
2022-12-17T00:53:03.340Z,100292.47
2022-12-17T00:56:27.936Z,100283.86
2022-12-17T00:59:51.110Z,100276.88
2022-12-17T01:03:14.459Z,100275.87
2022-12-17T01:06:37.898Z,100268.30
2022-12-17T01:10:01.429Z,100263.79
2022-12-17T01:13:25.335Z,100251.97
2022-12-17T01:16:48.962Z,100248.91
2022-12-17T01:20:13.286Z,100243.16
2022-12-17T01:23:38.794Z,100235.54
2022-12-17T01:27:02.078Z,100248.41
2022-12-17T01:30:18.809Z,100241.63
2022-12-17T01:33:42.464Z,100241.95
2022-12-17T01:37:04.684Z,100249.52
2022-12-17T01:40:19.462Z,100247.14
2022-12-17T01:43:38.366Z,100230.36
2022-12-17T01:47:08.838Z,100221.34
2022-12-17T01:50:32.272Z,100223.16
2022-12-17T01:54:00.430Z,100218.82
2022-12-17T01:57:22.925Z,100217.61
2022-12-17T02:00:46.811Z,100215.37
2022-12-17T02:04:09.664Z,100224.20
2022-12-17T02:07:55.547Z,100209.75
2022-12-17T02:11:24.428Z,100194.27
2022-12-17T02:15:12.201Z,100200.48
2022-12-17T02:18:38.696Z,100204.80
2022-12-17T02:22:02.590Z,100180.93
2022-12-17T02:25:29.470Z,100166.08
2022-12-17T02:28:52.686Z,100178.42
2022-12-17T02:32:17.038Z,100168.16
2022-12-17T02:35:49.194Z,100155.73
2022-12-17T02:39:12.194Z,100141.95
2022-12-17T02:42:35.981Z,100152.34
2022-12-17T02:46:01.992Z,100153.87
2022-12-17T02:49:18.343Z,100174.00
2022-12-17T02:52:41.705Z,100184.59
2022-12-17T02:56:04.493Z,100178.43
2022-12-17T02:59:27.545Z,100191.39
2022-12-17T03:02:51.890Z,100188.67
2022-12-17T03:06:15.641Z,100185.27
2022-12-17T03:09:39.644Z,100184.26
2022-12-17T03:13:05.923Z,100197.02
2022-12-17T03:16:32.800Z,100184.92
2022-12-17T03:19:54.864Z,100188.84
2022-12-17T03:23:18.555Z,100185.62
2022-12-17T03:26:42.319Z,100174.00
2022-12-17T03:30:04.880Z,100165.33
2022-12-17T03:33:29.075Z,100170.94
2022-12-17T03:36:52.536Z,100157.28
2022-12-17T03:40:16.177Z,100161.39
2022-12-17T03:43:40.946Z,100175.89
2022-12-17T03:47:04.404Z,100186.80
2022-12-17T03:50:28.565Z,100181.17
2022-12-17T03:53:52.075Z,100180.50
2022-12-17T03:57:03.544Z,100190.55
2022-12-17T04:00:27.257Z,100188.69
2022-12-17T04:03:51.388Z,100191.23
2022-12-17T04:07:17.114Z,100190.20
2022-12-17T04:10:41.586Z,100180.30
2022-12-17T04:14:05.979Z,100183.39
2022-12-17T04:17:29.912Z,100188.84
2022-12-17T04:20:54.160Z,100186.81
2022-12-17T04:24:18.344Z,100194.13
2022-12-17T04:27:42.263Z,100192.09
2022-12-17T04:31:06.764Z,100198.74
2022-12-17T04:34:30.059Z,100211.55
2022-12-17T04:37:53.250Z,100209.66
2022-12-17T04:41:16.273Z,100198.38
2022-12-17T04:44:39.765Z,100197.52
2022-12-17T04:48:02.429Z,100209.96
2022-12-17T04:51:28.751Z,100207.78
2022-12-17T04:54:52.261Z,100197.56
2022-12-17T04:58:16.019Z,100188.67
2022-12-17T05:01:39.991Z,100194.28
2022-12-17T05:05:03.564Z,100202.28
2022-12-17T05:08:27.775Z,100198.88
2022-12-17T05:11:51.217Z,100206.71
2022-12-17T05:15:16.127Z,100205.67
2022-12-17T05:18:39.402Z,100199.16
2022-12-17T05:22:03.755Z,100201.48
2022-12-17T05:25:27.801Z,100202.38
2022-12-17T05:28:51.859Z,100202.77
2022-12-17T05:32:26.187Z,100191.16
2022-12-17T05:42:54.594Z,100207.95
2022-12-17T05:46:17.679Z,100203.47
2022-12-17T05:49:41.082Z,100213.56
2022-12-17T05:53:03.965Z,100211.80
2022-12-17T05:56:27.707Z,100207.96
2022-12-17T05:59:50.628Z,100197.95
2022-12-17T06:03:16.272Z,100176.08
2022-12-17T06:06:40.311Z,100173.52
2022-12-17T06:10:03.547Z,100187.51
2022-12-17T06:13:30.261Z,100214.45
2022-12-17T06:16:54.061Z,100226.41
2022-12-17T06:20:17.629Z,100235.67
2022-12-17T06:23:43.563Z,100228.48
2022-12-17T06:27:07.892Z,100220.77
2022-12-17T06:30:31.522Z,100217.74
2022-12-17T06:33:55.366Z,100210.20
2022-12-17T06:41:22.819Z,100191.07
2022-12-17T06:44:45.675Z,100198.77
2022-12-17T06:48:08.525Z,100199.12
2022-12-17T06:51:32.798Z,100188.91
2022-12-17T06:54:56.385Z,100175.19
2022-12-17T06:58:19.547Z,100182.24
2022-12-17T07:01:36.028Z,100187.77
2022-12-17T07:04:47.236Z,100175.98
2022-12-17T07:08:11.369Z,100182.64
2022-12-17T07:11:28.002Z,100181.75
2022-12-17T07:14:50.854Z,100188.00
2022-12-17T07:18:14.541Z,100194.94
2022-12-17T07:21:37.570Z,100195.59
2022-12-17T07:25:01.859Z,100203.77
2022-12-17T07:28:27.395Z,100197.59
2022-12-17T07:31:50.946Z,100194.22
2022-12-17T07:35:14.970Z,100186.75
2022-12-17T07:38:38.245Z,100200.61
2022-12-17T07:42:01.899Z,100198.57
2022-12-17T07:45:26.380Z,100201.27
2022-12-17T07:48:49.901Z,100202.08
2022-12-17T07:52:13.224Z,100205.54
2022-12-17T07:55:36.617Z,100207.02
2022-12-17T07:58:59.875Z,100203.94
2022-12-17T08:02:23.076Z,100206.23
2022-12-17T08:05:46.857Z,100213.81
2022-12-17T08:09:11.667Z,100212.88
2022-12-17T08:12:35.317Z,100215.66
2022-12-17T08:15:58.335Z,100205.86
2022-12-17T08:19:22.145Z,100201.95
2022-12-17T08:22:44.821Z,100208.33
2022-12-17T08:26:08.261Z,100212.59
2022-12-17T08:29:31.126Z,100211.64
2022-12-17T08:32:54.919Z,100215.24
2022-12-17T08:36:25.141Z,100205.64
2022-12-17T08:39:47.959Z,100198.73
2022-12-17T08:43:05.888Z,100206.56
2022-12-17T08:46:29.500Z,100200.84
2022-12-17T08:49:52.205Z,100208.35
2022-12-17T08:53:15.804Z,100198.27
2022-12-17T08:56:23.521Z,100201.72
2022-12-17T08:59:47.282Z,100194.20
2022-12-17T09:03:11.800Z,100191.19
2022-12-17T09:06:39.082Z,100185.56
2022-12-17T09:10:00.211Z,100175.27
2022-12-17T09:13:24.601Z,100180.09
2022-12-17T09:16:47.902Z,100176.81
2022-12-17T09:20:11.225Z,100174.86
2022-12-17T09:23:35.595Z,100174.11
2022-12-17T09:26:59.487Z,100154.56
2022-12-17T09:30:22.058Z,100154.41
2022-12-17T09:33:49.680Z,100157.45
2022-12-17T09:37:14.035Z,100157.22
2022-12-17T09:40:39.087Z,100127.18
2022-12-17T09:44:24.731Z,100133.08
2022-12-17T09:48:32.422Z,100126.73
2022-12-17T09:51:58.401Z,100124.61
2022-12-17T09:55:19.496Z,100129.22
2022-12-17T09:58:58.612Z,100126.55
2022-12-17T10:02:22.662Z,100121.31
2022-12-17T10:06:00.478Z,100119.58
2022-12-17T10:09:27.121Z,100120.64
2022-12-17T10:12:52.505Z,100120.74
2022-12-17T10:16:16.048Z,100119.73
2022-12-17T10:19:40.948Z,100107.65
2022-12-17T10:23:04.359Z,100106.44
2022-12-17T10:26:22.190Z,100111.03
2022-12-17T10:29:31.222Z,100115.30
2022-12-17T10:32:45.439Z,100110.45
2022-12-17T10:36:08.549Z,100105.34
2022-12-17T10:39:31.262Z,100097.42
2022-12-17T10:43:01.774Z,100086.19
2022-12-17T10:46:27.540Z,100093.56
2022-12-17T10:49:55.168Z,100083.83
2022-12-17T10:53:18.802Z,100097.41
2022-12-17T10:56:56.206Z,100088.78
2022-12-17T11:00:20.272Z,100091.30
2022-12-17T11:04:07.173Z,100084.00
2022-12-17T11:07:30.552Z,100075.09
2022-12-17T11:11:03.057Z,100083.85
2022-12-17T11:14:27.163Z,100080.38
2022-12-17T11:17:50.315Z,100073.05
2022-12-17T11:21:32.469Z,100070.34
2022-12-17T11:25:37.682Z,100066.25
2022-12-17T11:29:01.895Z,100047.14
2022-12-17T11:33:03.616Z,100042.18
2022-12-17T11:36:39.202Z,100041.39
2022-12-17T11:40:14.436Z,100036.95
2022-12-17T11:43:51.195Z,100048.59
2022-12-17T11:47:46.135Z,100047.27
2022-12-17T11:51:38.208Z,100032.73
2022-12-17T11:55:27.608Z,100029.73
2022-12-17T11:59:08.537Z,100019.66
2022-12-17T12:02:40.536Z,100027.27
2022-12-17T12:06:34.501Z,100013.75
2022-12-17T12:10:10.983Z,100024.35
2022-12-17T12:13:48.103Z,100011.95
2022-12-17T12:17:36.783Z,100013.36
2022-12-17T12:21:42.212Z,99999.58
2022-12-17T12:25:16.357Z,99996.86
2022-12-17T12:28:53.511Z,99999.48
2022-12-17T12:32:55.619Z,99985.69
2022-12-17T12:36:20.149Z,99989.61
2022-12-17T12:39:46.056Z,99989.05
2022-12-17T12:43:17.293Z,99990.89
2022-12-17T12:46:53.894Z,99993.65
2022-12-17T12:50:29.818Z,99998.75
2022-12-17T12:53:53.532Z,99993.41
2022-12-17T12:57:16.476Z,99998.08
2022-12-17T13:00:59.840Z,99979.14
2022-12-17T13:04:25.588Z,99983.87
2022-12-17T13:07:43.876Z,99985.69
2022-12-17T13:10:51.557Z,99972.04
2022-12-17T13:14:05.160Z,99974.81
2022-12-17T13:17:34.465Z,99970.28
2022-12-17T13:20:45.184Z,99969.99
2022-12-17T13:23:52.100Z,99962.14
2022-12-17T13:26:59.136Z,99946.12
2022-12-17T13:30:05.218Z,99949.18
2022-12-17T13:37:17.937Z,99947.39
2022-12-17T14:41:52.357Z,99914.05
2022-12-17T14:45:14.420Z,99914.78
2022-12-17T14:48:20.202Z,99910.66
2022-12-17T14:51:50.341Z,99912.04
2022-12-17T14:55:03.144Z,99915.06
2022-12-17T14:58:08.808Z,99919.27
2022-12-17T15:01:27.789Z,99905.24
2022-12-17T15:04:33.470Z,99912.21
2022-12-17T15:07:40.580Z,99900.98
2022-12-17T15:10:45.650Z,99906.61
2022-12-17T15:13:56.037Z,99924.42
2022-12-17T15:16:57.961Z,99915.94
2022-12-17T15:20:04.561Z,99906.55
2022-12-17T15:23:11.223Z,99902.29
2022-12-17T15:26:16.646Z,99907.40
2022-12-17T15:29:22.020Z,99918.10
2022-12-17T15:32:29.216Z,99908.65
2022-12-17T15:35:34.928Z,99903.02
2022-12-17T15:38:41.325Z,99907.78
2022-12-17T15:42:06.173Z,99914.97
2022-12-17T15:45:11.246Z,99912.02
2022-12-17T15:48:16.992Z,99886.66
2022-12-17T15:51:22.044Z,99889.71
2022-12-17T15:54:27.352Z,99902.97
2022-12-17T15:57:32.773Z,99895.37
2022-12-17T16:00:38.303Z,99901.53
2022-12-17T16:03:44.954Z,99885.39
2022-12-17T16:06:52.294Z,99886.64
2022-12-17T16:09:50.814Z,99908.21
2022-12-17T16:12:44.246Z,99893.81
2022-12-17T16:15:50.170Z,99893.64
2022-12-17T16:18:56.015Z,99876.27
2022-12-17T16:22:01.533Z,99871.36
2022-12-17T16:25:00.616Z,99868.10
2022-12-17T16:28:05.686Z,99871.66
2022-12-17T16:31:22.944Z,99885.67
2022-12-17T16:34:28.463Z,99892.23
2022-12-17T16:37:33.926Z,99892.59
2022-12-17T16:40:40.511Z,99901.39
2022-12-17T16:43:48.765Z,99896.30
2022-12-17T16:46:56.577Z,99883.67
2022-12-17T16:50:05.602Z,99887.19
2022-12-17T16:53:11.386Z,99874.98
2022-12-17T16:56:17.200Z,99892.73
2022-12-17T16:59:22.660Z,99893.41
2022-12-17T17:02:29.366Z,99888.05
2022-12-17T17:05:34.809Z,99878.77
2022-12-17T17:08:41.369Z,99878.06
2022-12-17T17:11:51.190Z,99870.06
2022-12-17T17:14:55.412Z,99864.89
2022-12-17T17:18:02.340Z,99856.94
2022-12-17T17:21:09.511Z,99865.94
2022-12-17T17:24:33.643Z,99869.07
2022-12-17T17:27:39.241Z,99863.76
2022-12-17T17:30:44.672Z,99867.08
2022-12-17T17:33:53.626Z,99872.03
2022-12-17T17:36:59.467Z,99874.39
2022-12-17T17:40:04.209Z,99873.76
2022-12-17T17:43:10.111Z,99878.56
2022-12-17T17:46:26.589Z,99875.35
2022-12-17T17:49:31.651Z,99873.82
2022-12-17T17:52:38.401Z,99873.55
2022-12-17T17:55:44.983Z,99882.81
2022-12-17T17:58:50.564Z,99875.75
2022-12-17T18:01:58.201Z,99868.73
2022-12-17T18:05:02.964Z,99863.98
2022-12-17T18:08:01.174Z,99874.36
2022-12-17T18:11:12.307Z,99868.78
2022-12-17T18:14:18.813Z,99861.66
2022-12-17T18:17:24.908Z,99856.14
2022-12-17T18:20:30.258Z,99862.45
2022-12-17T18:23:37.988Z,99853.73
2022-12-17T18:26:49.904Z,99877.89
2022-12-17T18:29:55.691Z,99885.17
2022-12-17T18:33:06.678Z,99882.56
2022-12-17T18:36:13.064Z,99880.42
2022-12-17T18:39:28.520Z,99887.10
2022-12-17T18:42:52.242Z,99894.14
2022-12-17T18:46:00.123Z,99906.90
2022-12-17T18:49:05.600Z,99895.55
2022-12-17T18:52:16.417Z,99897.96
2022-12-17T18:55:18.731Z,99910.31
2022-12-17T18:58:24.578Z,99894.25
2022-12-17T19:01:35.321Z,99889.39
2022-12-17T19:04:41.900Z,99882.46
2022-12-17T19:07:47.619Z,99881.45
2022-12-17T19:10:52.837Z,99885.37
2022-12-17T19:13:59.134Z,99897.11
2022-12-17T19:17:05.826Z,99905.12
2022-12-17T19:20:10.786Z,99907.45
2022-12-17T19:23:16.543Z,99895.73
2022-12-17T19:26:31.391Z,99905.88
2022-12-17T19:29:36.930Z,99902.92
2022-12-17T19:32:43.117Z,99911.13
2022-12-17T19:35:50.703Z,99916.66
2022-12-17T19:38:56.934Z,99893.09
2022-12-17T19:42:02.286Z,99886.00
2022-12-17T19:45:10.681Z,99885.27
2022-12-17T19:48:15.660Z,99903.75
2022-12-17T19:51:22.580Z,99920.02
2022-12-17T19:54:28.945Z,99868.09
2022-12-17T19:57:34.555Z,99890.36
2022-12-17T20:00:40.486Z,99904.97
2022-12-17T20:03:45.552Z,99913.09
2022-12-17T20:06:52.066Z,99936.65
2022-12-17T20:09:58.650Z,99939.44
2022-12-17T20:13:04.742Z,99912.54
2022-12-17T20:16:20.173Z,99889.13
2022-12-17T20:19:37.015Z,99885.39
2022-12-17T20:22:43.113Z,99930.42
2022-12-17T20:25:49.780Z,99962.95
2022-12-17T20:28:57.170Z,99958.52
2022-12-17T20:31:58.316Z,99936.91
2022-12-17T20:35:03.991Z,99927.89
2022-12-17T20:38:09.499Z,99914.84
2022-12-17T20:41:15.717Z,99918.42
2022-12-17T20:44:17.106Z,99918.61
2022-12-17T20:47:10.787Z,99926.91
2022-12-17T20:50:16.596Z,99914.18
2022-12-17T20:53:21.666Z,99921.17
2022-12-17T20:56:32.157Z,99918.53
2022-12-17T20:59:35.662Z,99916.86
2022-12-17T21:02:42.242Z,99920.32
2022-12-17T21:05:48.844Z,99940.74
2022-12-17T21:08:56.703Z,99919.41
2022-12-17T21:12:02.668Z,99898.84
2022-12-17T21:15:08.242Z,99895.94
2022-12-17T21:18:14.305Z,99896.92
2022-12-17T21:21:23.328Z,99904.13
2022-12-17T21:24:30.468Z,99899.48
2022-12-17T21:27:36.518Z,99904.25
2022-12-17T21:30:42.701Z,99905.58
2022-12-17T21:33:48.327Z,99922.60
2022-12-17T21:36:54.245Z,99932.09
2022-12-17T21:40:00.228Z,99932.39
2022-12-17T21:43:09.820Z,99956.69
2022-12-17T21:46:09.022Z,99948.59
2022-12-17T21:49:08.634Z,99945.91
2022-12-17T21:52:14.585Z,99955.89
2022-12-17T21:55:21.983Z,99969.02
2022-12-17T21:58:28.897Z,99983.60
2022-12-17T22:01:40.824Z,99968.64
2022-12-17T22:04:48.168Z,99979.59
2022-12-17T22:07:55.006Z,99974.91
2022-12-17T22:11:01.509Z,99961.14
2022-12-17T22:14:21.093Z,99948.13
2022-12-17T22:17:26.715Z,99950.67
2022-12-17T22:20:32.115Z,99959.73
2022-12-17T22:23:37.262Z,99976.19
2022-12-17T22:26:43.375Z,99997.80
2022-12-17T22:30:07.740Z,100013.94
2022-12-17T22:33:32.327Z,100015.31
2022-12-17T22:38:09.937Z,100004.14
2022-12-17T22:44:29.104Z,100005.71
2022-12-17T22:44:38.822Z,100007.55
2022-12-17T22:46:03.551Z,100004.98
2022-12-17T22:49:11.084Z,100002.39
2022-12-17T22:52:17.489Z,99996.17
2022-12-17T22:55:25.133Z,99999.70
2022-12-17T22:58:32.239Z,99997.84
2022-12-17T23:01:37.524Z,100005.86
2022-12-17T23:04:43.365Z,100005.39
2022-12-17T23:07:50.157Z,100027.66
2022-12-17T23:10:57.003Z,100031.45
2022-12-17T23:14:03.414Z,100029.38
2022-12-17T23:17:09.297Z,100035.77
2022-12-17T23:20:15.523Z,100039.35
2022-12-17T23:23:21.353Z,100044.98
2022-12-17T23:26:36.907Z,100048.13
2022-12-17T23:29:42.881Z,100048.39
2022-12-17T23:32:48.443Z,100057.64
2022-12-17T23:35:54.311Z,100062.81
2022-12-17T23:39:01.223Z,100070.16
2022-12-17T23:42:09.828Z,100070.73
2022-12-17T23:45:18.695Z,100077.11
2022-12-17T23:48:24.061Z,100084.55
2022-12-17T23:51:32.316Z,100087.56
2022-12-17T23:54:39.239Z,100099.31
2022-12-17T23:57:45.678Z,100116.00
